Flight Track Log - Related Links

Times and Time Zones

All times are in EDT time to prevent confusion due to time zone crossing. See the ASQ2597 flight status page for this flight to view local times or setup timezone preferences in your user account.

Time Position Orientation Groundspeed Altitude Reporting Facility
EDT Latitude Longitude Course Direction KTS MPH feet Rate Location/Type
Tue 07:33:20 AM 29.9447 -93.9753 41° Northeast 185 213 1,900  Level Houston Center
Tue 07:34:26 AM 29.9944 -93.9250 41° Northeast 257 296 5,300 2,672 Climbing Houston Center
Tue 07:35:28 AM 30.0647 -93.9578 338° Northwest 269 310 7,600 2,341 Climbing Houston Center
Tue 07:36:29 AM 30.1394 -94.0039 332° Northwest 294 338 10,100 1,672 Climbing Houston Center
Tue 07:37:30 AM 30.2250 -94.0586 331° Northwest 344 396 11,000 492 Climbing Houston Center
Tue 07:38:31 AM 30.3225 -94.1192 332° Northwest 392 451 11,100 1,033 Climbing Houston Center
Tue 07:39:32 AM 30.4233 -94.1842 331° Northwest 411 473 13,100 1,869 Climbing Houston Center
Tue 07:40:33 AM 30.5203 -94.2467 331° Northwest 399 459 14,900 1,623 Climbing Houston Center
Tue 07:41:34 AM 30.6181 -94.3086 331° Northwest 399 459 16,400 1,512 Climbing Houston Center
Tue 07:42:36 AM 30.7272 -94.3797 331° Northwest 401 461 18,000 1,512 Climbing Houston Center
Tue 07:43:37 AM 30.8086 -94.4697 316° Northwest 406 467 19,500 1,475 Climbing Houston Center
Tue 07:44:38 AM 30.8858 -94.5644 314° West 402 463 21,000 1,475 Climbing Houston Center
Tue 07:45:39 AM 30.9628 -94.6600 313° West 402 463 22,500 1,525 Climbing Houston Center
Tue 07:46:40 AM 31.0386 -94.7547 313° West 396 456 24,100 1,512 Climbing Houston Center
Tue 07:47:42 AM 31.1139 -94.8503 313° West 394 453 25,600 927 Climbing Houston Center
Tue 07:48:43 AM 31.1919 -94.9486 313° West 404 465 26,000 197 Climbing Houston Center
Tue 07:49:44 AM 31.2747 -95.0522 313° West 424 488 26,000  Level Houston Center
Tue 07:50:46 AM 31.3594 -95.1572 313° West 436 502 26,000  Level Houston Center
Tue 07:51:47 AM 31.4447 -95.2653 313° West 448 516 26,000  Level Houston Center
Tue 07:52:48 AM 31.5300 -95.3739 313° West 450 518 26,000  Level Houston Center
Tue 07:53:49 AM 31.6161 -95.4822 313° West 452 520 26,000  Level Houston Center
Tue 07:54:13 AM 31.6608 -95.5439 310° West 440 506 26,000  Level Fort Worth Center
Tue 07:55:13 AM 31.7394 -95.6447 313° West 454 522 26,000  Level Fort Worth Center
Tue 07:56:13 AM 31.8267 -95.7531 313° West 454 522 26,000  Level Fort Worth Center
Tue 07:57:13 AM 31.9117 -95.8667 311° West 454 522 26,000 -150 Level Fort Worth Center
Tue 07:58:13 AM 32.0047 -95.9825 313° West 454 522 25,700 -1,000 Descending Fort Worth Center
Tue 07:59:13 AM 32.0897 -96.1014 310° West 460 529 24,000 -2,100 Descending Fort Worth Center
Tue 08:00:13 AM 32.1806 -96.2106 315° West 460 529 21,500 -2,450 Descending Fort Worth Center
Tue 08:01:13 AM 32.2669 -96.3150 314° West 448 516 19,100 -2,450 Descending Fort Worth Center
Tue 08:02:13 AM 32.3536 -96.4175 315° West 443 510 16,600 -2,350 Descending Fort Worth Center
Tue 08:03:13 AM 32.4397 -96.5150 316° Northwest 437 503 14,400 -2,400 Descending Fort Worth Center
Tue 08:04:13 AM 32.5156 -96.6078 314° West 414 476 11,800 -1,650 Descending Fort Worth Center
Tue 08:05:13 AM 32.5933 -96.7008 315° West 397 457 11,100 -452 Descending Fort Worth Center
Tue 08:05:46 AM 32.6333 -96.7500 314° West 392 451 11,100 -65 Level Dallas / Fort Worth TRACON
Tue 08:06:46 AM 32.7000 -96.8333 314° West 323 372 11,000  Descending Dallas / Fort Worth TRACON
Tue 08:07:52 AM 32.7667 -96.9000 320° Northwest 275 316 11,100 -143 Climbing Dallas / Fort Worth TRACON
Tue 08:08:52 AM 32.8500 -96.9000 360° North 264 304 10,700 -1,008 Descending Dallas / Fort Worth TRACON
Tue 08:09:57 AM 32.9167 -96.9167 348° North 258 297 9,000 -1,900 Descending Dallas / Fort Worth TRACON
Tue 08:10:52 AM 32.9833 -96.9333 348° North 253 291 6,900 -2,200 Descending Dallas / Fort Worth TRACON
Tue 08:11:57 AM 33.0500 -96.9500 348° North 239 275 4,600 -1,872 Descending Dallas / Fort Worth TRACON
Tue 08:12:57 AM 33.0500 -97.0167 270° West 178 205 3,000 -1,156 Descending Dallas / Fort Worth TRACON
Tue 08:13:46 AM 33.0167 -97.0167 180° South 165 190 2,500 -661 Descending Dallas / Fort Worth TRACON
Tue 08:14:46 AM 32.9667 -97.0167 180° South 138 159 1,800 -667 Descending Dallas / Fort Worth TRACON
Tue 08:15:52 AM 32.9333 -97.0167 180° South 124 143 1,100 -636 Descending Dallas / Fort Worth TRACON

Login

Don't have an account? Register now (free) for customized features, flight alerts, and more!